Date,TemperatureHighF,TemperatureAvgF,TemperatureLowF,DewpointHighF,DewpointAvgF,DewpointLowF,HumidityHigh,HumidityAvg,HumidityLow,PressureMaxIn,PressureMinIn,WindSpeedMaxMPH,WindSpeedAvgMPH,GustSpeedMaxMPH,PrecipitationSumIn
2013-2-1,74.3,59.1,49.1,51.8,43.6,39.2,77,58,34,30.12,29.96,0,0,8,0.00
2013-2-2,63.1,55.3,51.3,53.6,45.8,41.0,76,70,61,30.24,30.12,0,0,7,0.00
2013-2-3,67.1,55.7,50.2,46.4,43.4,37.4,76,64,37,30.20,30.00,0,0,9,0.00
2013-2-4,63.0,53.1,48.2,53.6,46.4,41.0,89,78,62,30.08,29.92,0,0,8,0.00
2013-2-5,58.5,53.7,51.1,50.0,45.1,41.0,81,73,62,30.04,29.96,0,0,11,0.00
2013-2-6,65.8,53.9,47.3,46.4,41.9,35.6,77,64,35,30.08,30.00,0,0,11,0.00
2013-2-7,61.0,51.9,47.5,48.2,39.9,33.8,76,64,40,30.08,29.84,0,0,13,0.08
2013-2-8,58.1,50.0,46.4,42.8,38.8,33.8,80,66,45,29.84,29.76,0,0,13,0.00
2013-2-9,65.5,51.3,41.7,35.6,32.1,32.0,64,44,24,29.96,29.80,0,0,10,0.00
2013-2-10,66.9,53.2,43.2,35.6,32.8,32.0,57,45,28,30.00,29.84,0,0,10,0.00
2013-2-11,68.0,54.5,43.2,35.6,32.4,32.0,64,42,20,30.16,29.92,0,0,11,0.00
2013-2-12,68.4,54.8,44.6,41.0,35.8,32.0,61,49,33,30.32,30.16,0,0,8,0.00
2013-2-13,68.5,55.6,46.9,48.2,39.3,33.8,74,56,33,30.28,30.12,0,0,9,0.00
2013-2-14,71.8,58.4,46.6,46.4,37.6,33.8,75,49,25,30.16,30.04,0,0,12,0.00
2013-2-15,78.4,62.2,50.4,44.6,38.2,33.8,58,42,25,30.20,30.08,0,0,8,0.00
2013-2-16,73.2,60.2,51.6,53.6,42.5,37.4,85,53,35,30.16,29.88,0,0,9,0.00
2013-2-17,69.4,57.2,50.2,48.2,43.4,37.4,83,62,35,29.92,29.80,0,0,11,0.00
2013-2-18,53.6,51.2,48.7,46.4,40.7,33.8,85,67,51,29.92,29.80,0,0,12,0.00
2013-2-19,52.2,48.0,42.3,44.6,37.8,32.0,86,68,50,29.80,29.53,0,0,19,1.06
2013-2-20,62.4,50.4,40.5,42.8,35.7,32.0,68,58,35,29.92,29.61,0,0,11,0.00
2013-2-21,65.3,52.6,43.7,41.0,36.4,32.0,73,55,25,30.08,29.92,0,0,15,0.00
2013-2-22,68.2,54.1,45.1,46.4,38.7,32.0,74,57,27,30.20,30.08,0,0,10,0.00
2013-2-23,63.5,55.1,51.3,48.2,38.9,32.0,85,56,31,30.20,30.04,0,0,15,0.00
2013-2-24,68.0,54.9,45.9,33.8,32.1,32.0,47,34,20,30.20,30.04,0,0,13,0.00
2013-2-25,66.6,54.6,46.8,44.6,38.6,32.0,68,55,36,30.20,30.08,0,0,12,0.00
2013-2-26,71.4,55.9,46.2,42.8,36.1,32.0,74,50,22,30.12,30.00,0,0,12,0.00
2013-2-27,73.6,57.7,46.8,42.8,34.8,32.0,63,43,22,30.32,30.12,0,0,9,0.00
2013-2-28,71.4,58.6,50.9,51.8,46.1,41.0,75,63,43,30.43,30.32,0,0,12,0.00